createdAt,value
2017-05-27T00:00:34.751Z,1017.51
2017-05-27T00:01:15.340Z,1017.51
2017-05-27T00:01:55.926Z,1017.49
2017-05-27T00:02:36.505Z,1017.5
2017-05-27T00:03:17.102Z,1017.52
2017-05-27T00:03:57.695Z,1017.54
2017-05-27T00:04:38.289Z,1017.54
2017-05-27T00:05:18.861Z,1017.54
2017-05-27T00:05:59.444Z,1017.56
2017-05-27T00:06:40.037Z,1017.53
2017-05-27T00:07:20.616Z,1017.53
2017-05-27T00:08:01.197Z,1017.52
2017-05-27T00:08:41.787Z,1017.51
2017-05-27T00:09:22.371Z,1017.54
2017-05-27T00:10:02.955Z,1017.52
2017-05-27T00:10:43.537Z,1017.52
2017-05-27T00:11:24.127Z,1017.52
2017-05-27T00:12:04.745Z,1017.52
2017-05-27T00:12:45.337Z,1017.5
2017-05-27T00:13:25.920Z,1017.52
2017-05-27T00:14:06.553Z,1017.54
2017-05-27T00:14:47.142Z,1017.49
2017-05-27T00:15:27.719Z,1017.49
2017-05-27T00:16:08.297Z,1017.51
2017-05-27T00:16:48.894Z,1017.53
2017-05-27T00:17:29.472Z,1017.53
2017-05-27T00:18:10.086Z,1017.5
2017-05-27T00:18:50.659Z,1017.5
2017-05-27T00:19:31.282Z,1017.53
2017-05-27T00:20:11.859Z,1017.51
2017-05-27T00:20:52.442Z,1017.48
2017-05-27T00:21:33.014Z,1017.49
2017-05-27T00:22:13.596Z,1017.52
2017-05-27T00:22:54.178Z,1017.56
2017-05-27T00:23:34.755Z,1017.49
2017-05-27T00:24:15.343Z,1017.54
2017-05-27T00:24:55.930Z,1017.6
2017-05-27T00:25:36.509Z,1017.59
2017-05-27T00:26:17.119Z,1017.57
2017-05-27T00:26:57.717Z,1017.6
2017-05-27T00:27:38.306Z,1017.62
2017-05-27T00:28:18.887Z,1017.6
2017-05-27T00:28:59.475Z,1017.6
2017-05-27T00:29:40.076Z,1017.61
2017-05-27T00:30:20.702Z,1017.57
2017-05-27T00:31:01.302Z,1017.61
2017-05-27T00:31:41.882Z,1017.6
2017-05-27T00:32:22.467Z,1017.6
2017-05-27T00:33:03.079Z,1017.62
2017-05-27T00:33:43.701Z,1017.62
2017-05-27T00:34:24.286Z,1017.62
2017-05-27T00:35:04.877Z,1017.6
2017-05-27T00:35:45.453Z,1017.62
2017-05-27T00:36:26.106Z,1017.62
2017-05-27T00:37:06.646Z,1017.63
2017-05-27T00:37:47.227Z,1017.63
2017-05-27T00:38:27.808Z,1017.66
2017-05-27T00:39:08.391Z,1017.65
2017-05-27T00:39:48.985Z,1017.63
2017-05-27T00:40:29.587Z,1017.59
2017-05-27T00:41:10.178Z,1017.63
2017-05-27T00:41:50.762Z,1017.64
2017-05-27T00:42:31.339Z,1017.6
2017-05-27T00:43:11.914Z,1017.66
2017-05-27T00:43:52.516Z,1017.72
2017-05-27T00:44:33.103Z,1017.66
2017-05-27T00:45:13.681Z,1017.69
2017-05-27T00:45:54.260Z,1017.71
2017-05-27T00:46:34.853Z,1017.75
2017-05-27T00:47:15.432Z,1017.76
2017-05-27T00:47:56.022Z,1017.77
2017-05-27T00:48:36.624Z,1017.79
2017-05-27T00:49:17.214Z,1017.77
2017-05-27T00:49:57.798Z,1017.78
2017-05-27T00:50:38.394Z,1017.79
2017-05-27T00:51:18.973Z,1017.8
2017-05-27T00:51:59.568Z,1017.81
2017-05-27T00:52:40.150Z,1017.8
2017-05-27T00:53:20.730Z,1017.78
2017-05-27T00:54:01.315Z,1017.81
2017-05-27T00:54:41.903Z,1017.79
2017-05-27T00:55:22.497Z,1017.81
2017-05-27T00:56:03.081Z,1017.8
2017-05-27T00:56:43.665Z,1017.79
2017-05-27T00:57:27.857Z,1017.81
2017-05-27T00:58:08.445Z,1017.8
2017-05-27T00:58:49.045Z,1017.8
2017-05-27T00:59:29.623Z,1017.78
2017-05-27T01:00:10.211Z,1017.84
2017-05-27T01:00:50.831Z,1017.82
2017-05-27T01:01:31.415Z,1017.85
2017-05-27T01:02:12.009Z,1017.8
2017-05-27T01:02:52.587Z,1017.84
2017-05-27T01:03:33.162Z,1017.84
2017-05-27T01:04:13.740Z,1017.83
2017-05-27T01:04:54.333Z,1017.88
2017-05-27T01:05:34.921Z,1017.84
2017-05-27T01:06:15.495Z,1017.88
2017-05-27T01:06:56.085Z,1017.86
2017-05-27T01:07:36.670Z,1017.88
2017-05-27T01:08:17.253Z,1017.85
2017-05-27T01:08:57.837Z,1017.88
2017-05-27T01:09:38.428Z,1017.85
2017-05-27T01:10:19.007Z,1017.84
2017-05-27T01:10:59.589Z,1017.89
2017-05-27T01:11:40.160Z,1017.86
2017-05-27T01:12:20.758Z,1017.86
2017-05-27T01:13:01.339Z,1017.89
2017-05-27T01:13:41.923Z,1017.85
2017-05-27T01:14:22.496Z,1017.85
2017-05-27T01:15:03.094Z,1017.87
2017-05-27T01:15:43.689Z,1017.89
2017-05-27T01:16:24.275Z,1017.89
2017-05-27T01:17:04.873Z,1017.88
2017-05-27T01:17:45.454Z,1017.87
2017-05-27T01:18:26.032Z,1017.87
2017-05-27T01:19:06.632Z,1017.84
2017-05-27T01:19:47.223Z,1017.89
2017-05-27T01:20:27.798Z,1017.85
2017-05-27T01:21:08.385Z,1017.87
2017-05-27T01:21:48.962Z,1017.88
2017-05-27T01:22:29.547Z,1017.91
2017-05-27T01:23:10.146Z,1017.94
2017-05-27T01:23:50.796Z,1017.93
2017-05-27T01:24:31.372Z,1017.94
2017-05-27T01:25:11.957Z,1017.95
2017-05-27T01:25:52.564Z,1017.93
2017-05-27T01:26:33.150Z,1017.96
2017-05-27T01:27:13.730Z,1017.94
2017-05-27T01:27:54.317Z,1017.97
2017-05-27T01:28:34.907Z,1017.99
2017-05-27T01:29:15.508Z,1017.99
2017-05-27T01:29:56.087Z,1017.99
2017-05-27T01:30:36.694Z,1017.99
2017-05-27T01:31:17.270Z,1017.98
2017-05-27T01:31:57.892Z,1017.96
2017-05-27T01:32:38.466Z,1017.98
2017-05-27T01:33:19.049Z,1017.96
2017-05-27T01:33:59.655Z,1017.97
2017-05-27T01:34:40.239Z,1017.97
2017-05-27T01:35:20.826Z,1018
2017-05-27T01:36:01.410Z,1017.99
2017-05-27T01:36:41.991Z,1018.04
2017-05-27T01:37:22.582Z,1017.99
2017-05-27T01:38:03.164Z,1018.03
2017-05-27T01:38:43.739Z,1018.01
2017-05-27T01:39:24.320Z,1018.04
2017-05-27T01:40:04.904Z,1018.02
2017-05-27T01:40:45.484Z,1018.04
2017-05-27T01:41:26.083Z,1018.04
2017-05-27T01:42:06.665Z,1018.02
2017-05-27T01:42:47.322Z,1018.01
2017-05-27T01:43:27.857Z,1018.04
2017-05-27T01:44:08.442Z,1018.02
2017-05-27T01:44:49.045Z,1018.01
2017-05-27T01:45:29.653Z,1018.02
2017-05-27T01:46:10.246Z,1018.02
2017-05-27T01:46:50.839Z,1017.99
2017-05-27T01:47:31.423Z,1018.01
2017-05-27T01:48:12.020Z,1018
2017-05-27T01:48:52.600Z,1018.01
2017-05-27T01:49:33.199Z,1018
2017-05-27T01:50:13.797Z,1018.02
2017-05-27T01:50:54.383Z,1017.99
2017-05-27T01:51:34.972Z,1018.02
2017-05-27T01:52:15.599Z,1018.01
2017-05-27T01:52:56.182Z,1017.99
2017-05-27T01:53:36.771Z,1018.01
2017-05-27T01:54:17.351Z,1018.06
2017-05-27T01:54:57.927Z,1017.98
2017-05-27T01:55:38.521Z,1018.03
2017-05-27T01:56:19.108Z,1018.01
2017-05-27T01:56:59.683Z,1018.04
2017-05-27T01:57:40.273Z,1018.02
2017-05-27T01:58:20.855Z,1018.02
2017-05-27T01:59:01.438Z,1018.01
2017-05-27T01:59:42.112Z,1018.05
2017-05-27T02:00:22.698Z,1017.99
2017-05-27T02:01:03.277Z,1018
2017-05-27T02:01:43.909Z,1018.02
2017-05-27T02:02:24.489Z,1018.05
2017-05-27T02:03:05.090Z,1018.07
2017-05-27T02:03:45.678Z,1018.05
2017-05-27T02:04:26.275Z,1018.05
2017-05-27T02:05:06.877Z,1018.09
2017-05-27T02:05:47.476Z,1018.04
2017-05-27T02:06:28.057Z,1018.05
2017-05-27T02:07:08.635Z,1018.06
2017-05-27T02:07:49.225Z,1018.07
2017-05-27T02:08:29.808Z,1018.03
2017-05-27T02:09:10.423Z,1018.04
2017-05-27T02:09:50.996Z,1018.03
2017-05-27T02:10:31.723Z,1018.01
2017-05-27T02:11:12.312Z,1018.04
2017-05-27T02:11:52.926Z,1018.04
2017-05-27T02:12:33.533Z,1018.05
2017-05-27T02:13:14.127Z,1018.04
2017-05-27T02:13:54.697Z,1018.05
2017-05-27T02:14:35.279Z,1018.03
2017-05-27T02:15:15.864Z,1018.02
2017-05-27T02:15:56.444Z,1018.01
2017-05-27T02:16:37.040Z,1018.01
2017-05-27T02:17:17.619Z,1017.99
2017-05-27T02:17:58.213Z,1018.02
2017-05-27T02:18:38.785Z,1018.05
2017-05-27T02:19:19.398Z,1018.04
2017-05-27T02:20:00.001Z,1018.08
2017-05-27T02:20:40.589Z,1018.07
2017-05-27T02:21:21.173Z,1018.04
2017-05-27T02:22:01.749Z,1018.06
2017-05-27T02:22:42.352Z,1018.08
2017-05-27T02:23:22.929Z,1018.07
2017-05-27T02:24:03.531Z,1018.1
2017-05-27T02:24:44.140Z,1018.1
2017-05-27T02:25:24.723Z,1018.11
2017-05-27T02:26:05.315Z,1018.07
2017-05-27T02:26:45.921Z,1018.09
2017-05-27T02:27:26.514Z,1018.08
2017-05-27T02:28:07.166Z,1018.07
2017-05-27T02:28:47.760Z,1018.08
2017-05-27T02:29:28.371Z,1018.05
2017-05-27T02:30:08.953Z,1018.03
2017-05-27T02:30:49.554Z,1018.03
2017-05-27T02:31:30.141Z,1018.03
2017-05-27T02:32:10.723Z,1018.04
2017-05-27T02:32:51.295Z,1018.06
2017-05-27T02:33:31.887Z,1018.04
2017-05-27T02:34:12.483Z,1018.05
2017-05-27T02:34:53.063Z,1018.05
2017-05-27T02:35:33.642Z,1018.07
2017-05-27T02:36:14.243Z,1018.12
2017-05-27T02:36:54.851Z,1018.08
2017-05-27T02:37:35.435Z,1018.06
2017-05-27T02:38:16.022Z,1018.07
2017-05-27T02:38:56.604Z,1018.09
2017-05-27T02:39:37.187Z,1018.08
2017-05-27T02:40:17.804Z,1018.09
2017-05-27T02:40:58.405Z,1018.05
2017-05-27T02:41:38.989Z,1018.07
2017-05-27T02:42:19.572Z,1018.07
2017-05-27T02:43:00.147Z,1018.08
2017-05-27T02:43:40.747Z,1018.07
2017-05-27T02:44:21.334Z,1018.05
2017-05-27T02:45:01.922Z,1018.03
2017-05-27T02:45:42.506Z,1018.05
2017-05-27T02:46:23.093Z,1018.09
2017-05-27T02:47:03.671Z,1018.08
2017-05-27T02:47:44.264Z,1018.07
2017-05-27T02:48:24.857Z,1018.09
2017-05-27T02:49:05.455Z,1018.09
2017-05-27T02:49:46.042Z,1018.11
2017-05-27T02:50:26.626Z,1018.11
2017-05-27T02:51:07.209Z,1018.05
2017-05-27T02:51:47.793Z,1018.1
2017-05-27T02:52:28.385Z,1018.1
2017-05-27T02:53:08.970Z,1018.1
2017-05-27T02:53:49.833Z,1018.11
2017-05-27T02:54:30.418Z,1018.11
2017-05-27T02:55:11.006Z,1018.15
2017-05-27T02:55:51.594Z,1018.15
2017-05-27T02:56:32.201Z,1018.14
2017-05-27T02:57:12.796Z,1018.2
2017-05-27T02:57:53.405Z,1018.16
2017-05-27T02:58:33.991Z,1018.2
2017-05-27T02:59:14.575Z,1018.2
2017-05-27T02:59:55.170Z,1018.2
2017-05-27T03:00:35.782Z,1018.23
2017-05-27T03:01:16.372Z,1018.21
2017-05-27T03:01:56.954Z,1018.22
2017-05-27T03:02:37.534Z,1018.24
2017-05-27T03:03:18.119Z,1018.22
2017-05-27T03:03:58.699Z,1018.2
2017-05-27T03:04:39.272Z,1018.2
2017-05-27T03:05:19.881Z,1018.25
2017-05-27T03:06:00.477Z,1018.2
2017-05-27T03:06:41.060Z,1018.25
2017-05-27T03:07:21.641Z,1018.24
2017-05-27T03:08:02.243Z,1018.22
2017-05-27T03:08:42.842Z,1018.24
2017-05-27T03:09:23.423Z,1018.25
2017-05-27T03:10:04.052Z,1018.23
2017-05-27T03:10:44.656Z,1018.23
2017-05-27T03:11:25.245Z,1018.23
2017-05-27T03:12:05.848Z,1018.22
2017-05-27T03:12:46.469Z,1018.27
2017-05-27T03:13:27.060Z,1018.25
2017-05-27T03:14:07.646Z,1018.27
2017-05-27T03:14:48.234Z,1018.31
2017-05-27T03:15:28.820Z,1018.3
2017-05-27T03:16:09.415Z,1018.31
2017-05-27T03:16:50.001Z,1018.31
2017-05-27T03:17:30.589Z,1018.31
2017-05-27T03:18:11.163Z,1018.3
2017-05-27T03:18:51.742Z,1018.32
2017-05-27T03:19:32.333Z,1018.3
2017-05-27T03:20:12.921Z,1018.34
2017-05-27T03:20:53.508Z,1018.31
2017-05-27T03:21:34.089Z,1018.3
2017-05-27T03:22:14.663Z,1018.3
2017-05-27T03:22:55.275Z,1018.31
2017-05-27T03:23:35.907Z,1018.31
2017-05-27T03:24:16.487Z,1018.32
2017-05-27T03:24:57.081Z,1018.3
2017-05-27T03:25:37.715Z,1018.31
2017-05-27T03:26:18.403Z,1018.33
2017-05-27T03:26:59.027Z,1018.3
2017-05-27T03:27:39.629Z,1018.31
2017-05-27T03:28:20.236Z,1018.3
2017-05-27T03:29:00.836Z,1018.26
2017-05-27T03:29:41.417Z,1018.29
2017-05-27T03:30:22.045Z,1018.27
2017-05-27T03:31:02.625Z,1018.27
2017-05-27T03:31:43.221Z,1018.28
2017-05-27T03:32:23.866Z,1018.3
2017-05-27T03:33:04.454Z,1018.29
2017-05-27T03:33:45.041Z,1018.27
2017-05-27T03:34:25.616Z,1018.3
2017-05-27T03:35:06.195Z,1018.35
2017-05-27T03:35:46.781Z,1018.35
2017-05-27T03:36:27.363Z,1018.35
2017-05-27T03:37:07.944Z,1018.38
2017-05-27T03:37:48.533Z,1018.36
2017-05-27T03:38:29.169Z,1018.34
2017-05-27T03:39:09.713Z,1018.36
2017-05-27T03:39:50.308Z,1018.34
2017-05-27T03:40:30.930Z,1018.36
2017-05-27T03:41:11.520Z,1018.4
2017-05-27T03:41:52.106Z,1018.37
2017-05-27T03:42:32.684Z,1018.38
2017-05-27T03:43:13.285Z,1018.37
2017-05-27T03:43:53.873Z,1018.38
2017-05-27T03:44:34.467Z,1018.35
2017-05-27T03:45:15.053Z,1018.38
2017-05-27T03:45:55.648Z,1018.34
2017-05-27T03:46:36.233Z,1018.34
2017-05-27T03:47:16.828Z,1018.35
2017-05-27T03:47:57.418Z,1018.4
2017-05-27T03:48:38.001Z,1018.39
2017-05-27T03:49:18.581Z,1018.4
2017-05-27T03:49:59.166Z,1018.39
2017-05-27T03:50:39.776Z,1018.4
2017-05-27T03:51:20.367Z,1018.42
2017-05-27T03:52:00.955Z,1018.42
2017-05-27T03:52:41.545Z,1018.43
2017-05-27T03:53:22.194Z,1018.45
2017-05-27T03:54:02.809Z,1018.44
2017-05-27T03:54:43.456Z,1018.48
2017-05-27T03:55:24.011Z,1018.46
2017-05-27T03:56:04.599Z,1018.44
2017-05-27T03:56:45.182Z,1018.48
2017-05-27T03:57:25.765Z,1018.41
2017-05-27T03:58:06.361Z,1018.46
2017-05-27T03:58:46.972Z,1018.48
2017-05-27T03:59:27.575Z,1018.47
2017-05-27T04:00:08.207Z,1018.48
2017-05-27T04:00:48.799Z,1018.51
2017-05-27T04:01:29.381Z,1018.5
2017-05-27T04:02:09.970Z,1018.53
2017-05-27T04:02:50.556Z,1018.48
2017-05-27T04:03:31.144Z,1018.49
2017-05-27T04:04:11.728Z,1018.52
2017-05-27T04:04:52.305Z,1018.53
2017-05-27T04:05:33.467Z,1018.54
2017-05-27T04:06:14.052Z,1018.54
2017-05-27T04:06:54.628Z,1018.59
2017-05-27T04:07:35.222Z,1018.57
2017-05-27T04:08:15.808Z,1018.6
2017-05-27T04:08:56.401Z,1018.58
2017-05-27T04:09:36.984Z,1018.57
2017-05-27T04:10:17.584Z,1018.58
2017-05-27T04:10:58.174Z,1018.59
2017-05-27T04:11:38.750Z,1018.61
2017-05-27T04:12:19.336Z,1018.62
2017-05-27T04:12:59.932Z,1018.62
2017-05-27T04:13:40.526Z,1018.55
2017-05-27T04:14:21.106Z,1018.56
2017-05-27T04:15:01.692Z,1018.51
2017-05-27T04:15:42.280Z,1018.57
2017-05-27T04:16:22.866Z,1018.54
2017-05-27T04:17:03.443Z,1018.55
2017-05-27T04:17:44.033Z,1018.57
2017-05-27T04:18:24.622Z,1018.57
2017-05-27T04:19:05.212Z,1018.54
2017-05-27T04:19:45.801Z,1018.59
2017-05-27T04:20:26.373Z,1018.58
2017-05-27T04:21:06.957Z,1018.56
2017-05-27T04:21:47.549Z,1018.59
2017-05-27T04:22:28.145Z,1018.59
2017-05-27T04:23:08.766Z,1018.57
2017-05-27T04:23:49.342Z,1018.59
2017-05-27T04:24:29.952Z,1018.58
2017-05-27T04:25:10.534Z,1018.62
2017-05-27T04:25:51.130Z,1018.63
2017-05-27T04:26:31.708Z,1018.62
2017-05-27T04:27:12.362Z,1018.6
2017-05-27T04:27:52.950Z,1018.57
2017-05-27T04:28:33.527Z,1018.6
2017-05-27T04:29:14.102Z,1018.62
2017-05-27T04:29:54.690Z,1018.6
2017-05-27T04:30:35.271Z,1018.58
2017-05-27T04:31:15.861Z,1018.59
2017-05-27T04:31:56.440Z,1018.59
2017-05-27T04:32:37.046Z,1018.56
2017-05-27T04:33:17.620Z,1018.57
2017-05-27T04:33:58.209Z,1018.57
2017-05-27T04:34:38.803Z,1018.61
2017-05-27T04:35:19.392Z,1018.57
2017-05-27T04:35:59.970Z,1018.57
2017-05-27T04:36:40.553Z,1018.6
2017-05-27T04:37:21.142Z,1018.6
2017-05-27T04:38:01.728Z,1018.6
2017-05-27T04:38:42.314Z,1018.57
2017-05-27T04:39:22.916Z,1018.58
2017-05-27T04:40:03.510Z,1018.6
2017-05-27T04:40:44.096Z,1018.62
2017-05-27T04:41:24.672Z,1018.61
2017-05-27T04:42:05.269Z,1018.65
2017-05-27T04:42:45.862Z,1018.64
2017-05-27T04:43:26.442Z,1018.67
2017-05-27T04:44:07.021Z,1018.62
2017-05-27T04:44:47.612Z,1018.63
2017-05-27T04:45:28.298Z,1018.62
2017-05-27T04:46:08.900Z,1018.63
2017-05-27T04:46:49.492Z,1018.65
2017-05-27T04:47:30.103Z,1018.62
2017-05-27T04:48:10.690Z,1018.67
2017-05-27T04:48:51.284Z,1018.66
2017-05-27T04:49:31.874Z,1018.65
2017-05-27T04:50:12.463Z,1018.67
2017-05-27T04:50:53.049Z,1018.69
2017-05-27T04:51:33.634Z,1018.7
2017-05-27T04:52:14.228Z,1018.62
2017-05-27T04:52:54.806Z,1018.68
2017-05-27T04:53:35.399Z,1018.71
2017-05-27T04:54:15.980Z,1018.7
2017-05-27T04:54:56.563Z,1018.71
2017-05-27T04:55:37.146Z,1018.74
2017-05-27T04:56:17.723Z,1018.73
2017-05-27T04:56:58.308Z,1018.74
2017-05-27T04:57:38.914Z,1018.73
2017-05-27T04:58:19.523Z,1018.69
2017-05-27T04:59:00.108Z,1018.69
2017-05-27T04:59:40.705Z,1018.72
2017-05-27T05:00:21.310Z,1018.71
2017-05-27T05:01:01.895Z,1018.73
2017-05-27T05:01:42.482Z,1018.75
2017-05-27T05:02:23.088Z,1018.69
2017-05-27T05:03:03.671Z,1018.71
2017-05-27T05:03:44.302Z,1018.78
2017-05-27T05:04:24.987Z,1018.77
2017-05-27T05:05:05.580Z,1018.79
2017-05-27T05:05:46.192Z,1018.74
2017-05-27T05:06:26.776Z,1018.79
2017-05-27T05:07:07.440Z,1018.76
2017-05-27T05:07:48.013Z,1018.78
2017-05-27T05:08:28.793Z,1018.76
2017-05-27T05:09:09.392Z,1018.77
2017-05-27T05:09:49.978Z,1018.8
2017-05-27T05:10:30.697Z,1018.79
2017-05-27T05:11:11.305Z,1018.76
2017-05-27T05:11:51.888Z,1018.8
2017-05-27T05:12:32.475Z,1018.78
2017-05-27T05:13:13.074Z,1018.82
2017-05-27T05:13:53.654Z,1018.78
2017-05-27T05:14:34.242Z,1018.79
2017-05-27T05:15:14.820Z,1018.81
2017-05-27T05:15:55.401Z,1018.78
2017-05-27T05:16:35.992Z,1018.78
2017-05-27T05:17:16.589Z,1018.8
2017-05-27T05:17:57.173Z,1018.81
2017-05-27T05:18:37.747Z,1018.79
2017-05-27T05:19:18.333Z,1018.82
2017-05-27T05:19:58.924Z,1018.83
2017-05-27T05:20:39.512Z,1018.84
2017-05-27T05:21:31.876Z,1018.88
2017-05-27T05:22:13.311Z,1018.86
2017-05-27T05:22:58.851Z,1018.85
2017-05-27T05:23:52.202Z,1018.82
2017-05-27T05:24:39.061Z,1018.85
2017-05-27T05:25:27.384Z,1018.9
2017-05-27T05:26:08.725Z,1018.89
2017-05-27T05:26:49.984Z,1019.03
2017-05-27T05:27:41.167Z,1019.07
2017-05-27T05:28:29.416Z,1019.13
2017-05-27T05:29:10.046Z,1019.19
2017-05-27T05:29:50.632Z,1019.23
2017-05-27T05:30:31.225Z,1019.18
2017-05-27T05:31:11.819Z,1019.27
2017-05-27T05:31:52.413Z,1019.32
2017-05-27T05:32:33.000Z,1019.38
2017-05-27T05:33:13.605Z,1019.42
2017-05-27T05:33:54.183Z,1019.43
2017-05-27T05:34:34.771Z,1019.43
2017-05-27T05:35:15.366Z,1019.46
2017-05-27T05:35:56.004Z,1019.47
2017-05-27T05:36:36.581Z,1019.53
2017-05-27T05:37:17.164Z,1019.5
2017-05-27T05:37:57.743Z,1019.56
2017-05-27T05:38:38.327Z,1019.54
2017-05-27T05:39:18.923Z,1019.66
2017-05-27T05:39:59.547Z,1019.7
2017-05-27T05:40:40.135Z,1019.66
2017-05-27T05:41:20.737Z,1019.7
2017-05-27T05:42:01.324Z,1019.72
2017-05-27T05:42:41.905Z,1019.76
2017-05-27T05:43:22.868Z,1019.84
2017-05-27T05:44:03.464Z,1019.91
2017-05-27T05:44:44.071Z,1019.92
2017-05-27T05:45:24.674Z,1020
2017-05-27T05:46:05.277Z,1020.11
2017-05-27T05:46:45.877Z,1020.16
2017-05-27T05:47:26.457Z,1020.18
2017-05-27T05:48:07.060Z,1020.25
2017-05-27T05:48:47.667Z,1020.27
2017-05-27T05:49:28.269Z,1020.3
2017-05-27T05:50:09.207Z,1020.43
2017-05-27T05:50:49.818Z,1020.55
2017-05-27T05:51:30.627Z,1020.63
2017-05-27T05:52:11.263Z,1020.67
2017-05-27T05:52:51.870Z,1020.7
2017-05-27T05:53:32.821Z,1020.82
2017-05-27T05:54:13.631Z,1020.88
2017-05-27T05:54:54.241Z,1020.97
2017-05-27T05:55:34.846Z,1021.01
2017-05-27T05:56:15.457Z,1021.14
2017-05-27T05:56:56.059Z,1021.2
2017-05-27T05:57:36.671Z,1021.16
2017-05-27T05:58:17.270Z,1021.23
2017-05-27T05:58:57.870Z,1021.26
2017-05-27T05:59:38.466Z,1021.27
2017-05-27T06:00:19.074Z,1021.24
2017-05-27T06:00:59.670Z,1021.24
2017-05-27T06:01:40.282Z,1021.19
2017-05-27T06:02:20.895Z,1021.13
2017-05-27T06:03:01.486Z,1021.1
2017-05-27T06:03:42.081Z,1020.96
2017-05-27T06:04:22.684Z,1020.83
2017-05-27T06:05:03.280Z,1020.69
2017-05-27T06:05:43.890Z,1020.6
2017-05-27T06:06:24.495Z,1020.56
2017-05-27T06:07:05.090Z,1020.52
2017-05-27T06:07:45.683Z,1020.53
2017-05-27T06:08:26.318Z,1020.53
2017-05-27T06:09:06.926Z,1020.44
2017-05-27T06:09:47.524Z,1020.35
2017-05-27T06:10:28.158Z,1020.26
2017-05-27T06:11:08.780Z,1020.21
2017-05-27T06:11:49.372Z,1020.14
2017-05-27T06:12:30.116Z,1020.17
2017-05-27T06:13:10.713Z,1020.49
2017-05-27T06:13:51.347Z,1021.08
2017-05-27T06:14:31.955Z,1021.51
2017-05-27T06:15:12.559Z,1021.69
2017-05-27T06:15:53.150Z,1021.48
2017-05-27T06:16:33.758Z,1021.22
2017-05-27T06:17:14.395Z,1021.26
2017-05-27T06:17:55.000Z,1021.31
2017-05-27T06:18:35.615Z,1021.4
2017-05-27T06:19:16.445Z,1021.33
2017-05-27T06:19:57.041Z,1021.2
2017-05-27T06:20:37.668Z,1021.04
2017-05-27T06:21:18.263Z,1020.96
2017-05-27T06:21:58.858Z,1020.98
2017-05-27T06:22:39.449Z,1021.26
2017-05-27T06:23:20.084Z,1021.39
2017-05-27T06:24:00.668Z,1021.43
2017-05-27T06:24:41.269Z,1021.56
2017-05-27T06:25:21.881Z,1021.6
2017-05-27T06:26:02.474Z,1021.57
2017-05-27T06:26:43.130Z,1021.68
2017-05-27T06:27:23.728Z,1021.93
2017-05-27T06:28:04.334Z,1022.14
2017-05-27T06:28:45.048Z,1022.21
2017-05-27T06:29:25.653Z,1022.19
2017-05-27T06:30:06.260Z,1022.08
2017-05-27T06:30:46.854Z,1021.95
2017-05-27T06:31:27.451Z,1021.99
2017-05-27T06:32:08.064Z,1022.12
2017-05-27T06:32:48.653Z,1022.03
2017-05-27T06:33:29.247Z,1021.87
2017-05-27T06:34:09.856Z,1021.76
2017-05-27T06:34:50.474Z,1021.52
2017-05-27T06:35:31.084Z,1020.94
2017-05-27T06:36:11.686Z,1020.33
2017-05-27T06:36:52.273Z,1019.96
2017-05-27T06:37:32.864Z,1019.84
2017-05-27T06:38:13.518Z,1019.78
2017-05-27T06:38:54.114Z,1019.71
2017-05-27T06:39:34.903Z,1019.68
2017-05-27T06:40:15.494Z,1019.71
2017-05-27T06:40:56.269Z,1019.69
2017-05-27T06:41:36.868Z,1019.7
2017-05-27T06:42:17.477Z,1019.67
2017-05-27T06:42:58.057Z,1019.69
2017-05-27T06:43:38.675Z,1019.72
2017-05-27T06:44:19.294Z,1019.82
2017-05-27T06:44:59.893Z,1020.08
2017-05-27T06:45:40.495Z,1020.55
2017-05-27T06:46:21.341Z,1021.09
2017-05-27T06:47:01.945Z,1021.44
2017-05-27T06:47:42.542Z,1021.56
2017-05-27T06:48:24.013Z,1021.41
2017-05-27T06:49:06.679Z,1020.88
2017-05-27T06:49:49.667Z,1020.4
2017-05-27T06:50:30.839Z,1019.96
2017-05-27T06:51:11.442Z,1019.84
2017-05-27T06:51:52.061Z,1019.81
2017-05-27T06:52:32.664Z,1019.78
2017-05-27T06:53:13.289Z,1019.72
2017-05-27T06:53:53.908Z,1019.71
2017-05-27T06:54:34.643Z,1019.68
2017-05-27T06:55:15.255Z,1019.67
2017-05-27T06:55:55.899Z,1019.7
2017-05-27T06:56:37.388Z,1019.7
2017-05-27T06:57:18.004Z,1019.7
2017-05-27T06:57:58.602Z,1019.72
2017-05-27T06:58:39.197Z,1019.71
2017-05-27T06:59:19.796Z,1019.72
2017-05-27T07:00:00.385Z,1019.68
2017-05-27T07:00:40.979Z,1019.72
2017-05-27T07:01:21.594Z,1019.75
2017-05-27T07:02:02.181Z,1019.71
2017-05-27T07:02:42.780Z,1019.7
2017-05-27T07:03:23.381Z,1019.71
2017-05-27T07:04:04.011Z,1019.73
2017-05-27T07:04:44.639Z,1019.7
2017-05-27T07:05:25.234Z,1019.76
2017-05-27T07:06:05.822Z,1019.85
2017-05-27T07:06:46.436Z,1019.98
2017-05-27T07:07:27.087Z,1020.04
2017-05-27T07:08:07.683Z,1019.97
2017-05-27T07:08:48.290Z,1019.81
2017-05-27T07:09:28.881Z,1019.79
2017-05-27T07:10:09.488Z,1019.77
2017-05-27T07:10:50.144Z,1019.78
2017-05-27T07:11:30.745Z,1019.77
2017-05-27T07:12:11.339Z,1019.78
2017-05-27T07:12:51.945Z,1019.81
2017-05-27T07:13:32.545Z,1019.77
2017-05-27T07:14:13.147Z,1019.78
2017-05-27T07:14:53.749Z,1019.83
2017-05-27T07:15:34.378Z,1019.83
2017-05-27T07:16:14.989Z,1019.85
2017-05-27T07:16:55.621Z,1019.87
2017-05-27T07:17:36.207Z,1019.88
2017-05-27T07:18:16.808Z,1019.89
2017-05-27T07:18:57.405Z,1019.91
2017-05-27T07:19:38.009Z,1019.97
2017-05-27T07:20:18.596Z,1020.04
2017-05-27T07:20:59.199Z,1020.08
2017-05-27T07:21:39.802Z,1020.1
2017-05-27T07:22:20.403Z,1020.09
2017-05-27T07:23:00.999Z,1020.06
2017-05-27T07:23:41.596Z,1020.1
2017-05-27T07:24:22.202Z,1020.11
2017-05-27T07:25:02.821Z,1020.11
2017-05-27T07:25:43.413Z,1020.09
2017-05-27T07:26:24.020Z,1020.06
2017-05-27T07:27:04.618Z,1020.03
2017-05-27T07:27:45.306Z,1019.99
2017-05-27T07:28:25.910Z,1020.04
2017-05-27T07:29:06.503Z,1019.98
2017-05-27T07:29:47.105Z,1019.99
2017-05-27T07:30:27.782Z,1019.97
2017-05-27T07:31:08.385Z,1019.92
2017-05-27T07:31:49.006Z,1019.9
2017-05-27T07:32:29.628Z,1019.88
2017-05-27T07:33:13.803Z,1019.87
2017-05-27T07:34:05.678Z,1019.9
2017-05-27T07:34:54.659Z,1019.84
2017-05-27T07:35:42.344Z,1019.83
2017-05-27T07:36:23.141Z,1019.84
2017-05-27T07:37:03.831Z,1019.8
2017-05-27T07:37:44.391Z,1019.85
2017-05-27T07:38:35.883Z,1019.82
2017-05-27T07:39:26.164Z,1019.85
2017-05-27T07:40:08.319Z,1019.83
2017-05-27T07:41:02.488Z,1019.82
2017-05-27T07:41:55.027Z,1019.8
2017-05-27T07:42:49.302Z,1019.81
2017-05-27T07:43:51.313Z,1019.81
2017-05-27T07:44:42.278Z,1019.81
2017-05-27T07:45:28.361Z,1019.78
2017-05-27T07:46:12.670Z,1019.79
2017-05-27T07:46:59.412Z,1019.78
2017-05-27T07:47:42.091Z,1019.77
2017-05-27T07:48:27.723Z,1019.77
2017-05-27T07:49:18.172Z,1019.85
2017-05-27T07:50:00.928Z,1019.79
2017-05-27T07:50:44.636Z,1019.77
2017-05-27T07:51:31.777Z,1019.77
2017-05-27T07:52:19.711Z,1019.79
2017-05-27T07:53:03.247Z,1019.76
2017-05-27T07:53:59.499Z,1019.78
2017-05-27T07:54:42.923Z,1019.74
2017-05-27T07:55:24.518Z,1019.72
2017-05-27T07:56:16.051Z,1019.78
2017-05-27T07:56:57.094Z,1019.75
2017-05-27T07:57:42.478Z,1019.76
2017-05-27T07:58:26.238Z,1019.73
2017-05-27T07:59:06.867Z,1019.73
2017-05-27T07:59:47.488Z,1019.76
2017-05-27T08:00:28.743Z,1019.74
2017-05-27T08:01:10.350Z,1019.74
2017-05-27T08:01:50.945Z,1019.71
2017-05-27T08:02:31.842Z,1019.71
2017-05-27T08:03:12.440Z,1019.71
2017-05-27T08:03:54.897Z,1019.66
2017-05-27T08:04:35.501Z,1019.72
2017-05-27T08:05:16.112Z,1019.69
2017-05-27T08:05:56.715Z,1019.75
2017-05-27T08:06:37.317Z,1019.72
2017-05-27T08:07:18.719Z,1019.73
2017-05-27T08:08:00.377Z,1019.72
2017-05-27T08:08:41.011Z,1019.66
2017-05-27T08:09:21.606Z,1019.65
2017-05-27T08:10:02.211Z,1019.67
2017-05-27T08:10:42.815Z,1019.66
2017-05-27T08:11:25.254Z,1019.63
2017-05-27T08:12:05.844Z,1019.55
2017-05-27T08:12:46.445Z,1019.58
2017-05-27T08:13:27.043Z,1019.6
2017-05-27T08:14:07.882Z,1019.58
2017-05-27T08:14:48.563Z,1019.57
2017-05-27T08:15:29.159Z,1019.53
2017-05-27T08:16:11.890Z,1019.56
2017-05-27T08:16:52.483Z,1019.56
2017-05-27T08:17:33.087Z,1019.54
2017-05-27T08:18:13.680Z,1019.52